METAR Data
IDs: Format: Raw Decoded Include TAF

Data at: 2054 UTC 08 Aug 2020

KMKT 082036Z AUTO 32015G20KT 10SM -TSRA FEW013 SCT026 OVC036 21/20 A3000 RMK AO2 PK WND 33030/2020 WSHFT 2016 LTG DSNT SW-N TSB02RAB09 P0032